Time;durP1;ratioP1;P1;durP2;ratioP2;P2;SDS_P1;SDS_P2;PMS_P1;PMS_P2;Temp;Humidity;BMP_temperature;BMP_pressure;BME280_temperature;BME280_humidity;BME280_pressure;Samples;Min_cycle;Max_cycle;Signal;HPM_P1;HPM_P2
2023/06/28 00:00:13;;;;;;;11.60;8.70;;;27.30;99.90;;;;;;5091390;28;20020;-59
2023/06/28 00:02:39;;;;;;;10.55;8.52;;;27.20;99.90;;;;;;5090777;28;20028;-60
2023/06/28 00:05:07;;;;;;;11.80;7.88;;;27.30;99.90;;;;;;5088897;28;20020;-59
2023/06/28 00:07:33;;;;;;;8.45;7.60;;;27.30;99.90;;;;;;5078533;28;20501;-60
2023/06/28 00:09:58;;;;;;;10.52;7.85;;;27.30;99.90;;;;;;5092574;28;20374;-60
2023/06/28 00:12:26;;;;;;;11.65;8.50;;;27.20;99.90;;;;;;5092946;28;20115;-59
2023/06/28 00:14:55;;;;;;;10.23;8.27;;;26.90;99.90;;;;;;5081889;28;20021;-59
2023/06/28 00:17:27;;;;;;;11.55;8.15;;;27.00;99.90;;;;;;5090675;28;20103;-59
2023/06/28 00:19:54;;;;;;;10.68;8.30;;;27.00;99.90;;;;;;5090850;28;20028;-59
2023/06/28 00:22:22;;;;;;;9.65;8.05;;;26.90;99.90;;;;;;5091277;28;20465;-60
2023/06/28 00:24:47;;;;;;;11.27;7.97;;;26.80;99.90;;;;;;5092914;28;20031;-60
2023/06/28 00:27:13;;;;;;;11.57;8.07;;;26.90;99.90;;;;;;5091382;28;20035;-60
2023/06/28 00:29:39;;;;;;;10.77;8.38;;;26.80;99.90;;;;;;5092953;28;20036;-59
2023/06/28 00:32:04;;;;;;;12.15;8.65;;;26.80;99.90;;;;;;5087202;28;20070;-60
2023/06/28 00:34:30;;;;;;;13.07;9.05;;;26.90;99.90;;;;;;5092541;28;20077;-60
2023/06/28 00:36:56;;;;;;;9.82;8.27;;;26.70;99.90;;;;;;5089573;28;20025;-60
2023/06/28 00:39:21;;;;;;;10.20;9.20;;;26.60;99.90;;;;;;5094659;28;20020;-60
2023/06/28 00:41:47;;;;;;;9.52;8.57;;;26.50;99.90;;;;;;5094442;28;20028;-60
2023/06/28 00:44:13;;;;;;;10.10;9.10;;;26.50;99.90;;;;;;5094825;28;20377;-60
2023/06/28 00:46:38;;;;;;;10.93;9.13;;;26.40;99.90;;;;;;5096693;28;20023;-60
2023/06/28 00:49:04;;;;;;;10.23;8.50;;;26.30;99.90;;;;;;5095424;28;20027;-59
2023/06/28 00:51:32;;;;;;;9.65;8.48;;;26.30;99.90;;;;;;5096508;28;20477;-60
2023/06/28 00:54:01;;;;;;;10.52;8.02;;;26.30;99.90;;;;;;5084698;28;20050;-61
2023/06/28 00:56:27;;;;;;;9.60;8.48;;;26.40;99.90;;;;;;5093447;28;20535;-60
2023/06/28 00:58:53;;;;;;;9.65;8.60;;;26.30;99.90;;;;;;5093288;28;20349;-61
2023/06/28 01:01:19;;;;;;;9.70;8.70;;;26.20;99.90;;;;;;5089104;28;20124;-60
2023/06/28 01:03:45;;;;;;;10.35;8.85;;;26.30;99.90;;;;;;5095562;28;20051;-60
2023/06/28 01:06:12;;;;;;;9.63;8.73;;;26.20;99.90;;;;;;5093425;28;20091;-60
2023/06/28 01:08:41;;;;;;;9.88;7.78;;;25.90;99.90;;;;;;5095004;28;20541;-60
2023/06/28 01:11:09;;;;;;;12.25;8.25;;;26.10;99.90;;;;;;5092846;28;20557;-61
2023/06/28 01:13:35;;;;;;;10.25;8.60;;;26.10;99.90;;;;;;5095542;28;20103;-61
2023/06/28 01:16:02;;;;;;;10.15;9.15;;;26.10;99.90;;;;;;5092952;28;20040;-61
2023/06/28 01:18:29;;;;;;;9.63;8.50;;;25.80;99.90;;;;;;5094315;28;20097;-61
2023/06/28 01:20:55;;;;;;;10.05;8.07;;;25.90;99.90;;;;;;5094395;28;20036;-61
2023/06/28 01:23:25;;;;;;;10.13;8.32;;;25.90;99.90;;;;;;5090913;28;20677;-61
2023/06/28 01:25:52;;;;;;;11.52;9.00;;;25.80;99.90;;;;;;5093493;28;20406;-61
2023/06/28 01:28:19;;;;;;;8.77;7.85;;;25.80;99.90;;;;;;5093418;28;20052;-61
2023/06/28 01:30:48;;;;;;;9.45;7.82;;;25.80;99.90;;;;;;5095040;28;20508;-61
2023/06/28 01:33:15;;;;;;;13.15;8.32;;;25.80;99.90;;;;;;5094065;28;20024;-61
2023/06/28 01:35:41;;;;;;;8.65;7.43;;;25.90;99.90;;;;;;5094914;28;20458;-60
2023/06/28 01:38:08;;;;;;;8.93;8.05;;;25.80;99.90;;;;;;5091987;28;20100;-61
2023/06/28 01:40:36;;;;;;;8.65;7.82;;;25.70;99.90;;;;;;5092948;28;20457;-61
2023/06/28 01:43:06;;;;;;;11.50;8.05;;;25.50;99.90;;;;;;5094403;27;20036;-61
2023/06/28 01:45:36;;;;;;;9.07;8.15;;;25.60;99.90;;;;;;5082249;28;20082;-59
2023/06/28 01:48:02;;;;;;;8.50;7.63;;;25.60;99.90;;;;;;5086463;28;20031;-60
2023/06/28 01:50:29;;;;;;;9.48;8.13;;;25.70;99.90;;;;;;5076922;28;20428;-60
2023/06/28 01:52:59;;;;;;;9.77;8.23;;;25.70;99.90;;;;;;5084209;28;20131;-60
2023/06/28 01:55:25;;;;;;;8.85;7.97;;;25.60;99.90;;;;;;5089805;28;20047;-60
2023/06/28 01:57:51;;;;;;;9.40;8.23;;;25.60;99.90;;;;;;5092401;28;20494;-61
2023/06/28 02:00:17;;;;;;;8.60;7.65;;;25.50;99.90;;;;;;5094822;28;20059;-61
2023/06/28 02:02:43;;;;;;;9.02;8.13;;;25.60;99.90;;;;;;5092723;28;20052;-61
2023/06/28 02:05:08;;;;;;;8.73;7.78;;;25.60;99.90;;;;;;5094611;28;20117;-61
2023/06/28 02:07:34;;;;;;;7.90;7.10;;;25.40;99.90;;;;;;5092642;28;20070;-61
2023/06/28 02:10:00;;;;;;;12.15;7.07;;;25.60;99.90;;;;;;5080638;28;20477;-61
2023/06/28 02:12:25;;;;;;;9.38;7.10;;;25.60;99.90;;;;;;5093354;28;20419;-61
2023/06/28 02:14:52;;;;;;;11.40;7.75;;;25.70;99.90;;;;;;5093954;28;20024;-61
2023/06/28 02:17:20;;;;;;;8.07;7.28;;;25.50;99.90;;;;;;5092448;28;20064;-61
2023/06/28 02:19:47;;;;;;;10.75;7.97;;;25.40;99.90;;;;;;5079397;28;20083;-61
2023/06/28 02:22:16;;;;;;;10.70;7.78;;;25.30;99.90;;;;;;5091225;28;20026;-61
2023/06/28 02:24:43;;;;;;;9.15;8.23;;;25.40;99.90;;;;;;5090046;28;20032;-61
2023/06/28 02:27:09;;;;;;;8.48;7.68;;;25.20;99.90;;;;;;5093092;28;20451;-61
2023/06/28 02:29:35;;;;;;;8.57;6.93;;;25.30;99.90;;;;;;5093945;28;20040;-61
2023/06/28 02:32:01;;;;;;;10.25;7.38;;;25.30;99.90;;;;;;5092664;28;20024;-61
2023/06/28 02:34:27;;;;;;;9.95;7.95;;;25.20;99.90;;;;;;5093969;28;20063;-61
2023/06/28 02:36:53;;;;;;;8.85;7.28;;;25.10;99.90;;;;;;5090470;28;20089;-61
2023/06/28 02:39:18;;;;;;;9.93;6.85;;;25.20;99.90;;;;;;5093453;28;20020;-59
2023/06/28 02:41:44;;;;;;;7.40;6.35;;;25.10;99.90;;;;;;5092578;28;20511;-61
2023/06/28 02:44:10;;;;;;;7.68;6.93;;;25.20;99.90;;;;;;5093776;28;20513;-61
2023/06/28 02:46:35;;;;;;;7.88;7.03;;;25.20;99.90;;;;;;5092470;28;20039;-61
2023/06/28 02:49:01;;;;;;;8.40;7.50;;;25.10;99.90;;;;;;5092173;28;20024;-61
2023/06/28 02:51:27;;;;;;;7.60;6.90;;;25.20;99.90;;;;;;5092147;28;20130;-61
2023/06/28 02:53:53;;;;;;;9.07;6.97;;;25.10;99.90;;;;;;5091705;28;20420;-61
2023/06/28 02:56:19;;;;;;;9.63;6.88;;;25.00;99.90;;;;;;5091875;28;20044;-61
2023/06/28 02:58:44;;;;;;;7.72;6.93;;;25.10;99.90;;;;;;5092895;28;20036;-61
2023/06/28 03:01:10;;;;;;;8.73;6.65;;;25.20;99.90;;;;;;5091932;28;20413;-61
2023/06/28 03:03:36;;;;;;;7.78;7.00;;;25.10;99.90;;;;;;5092361;28;20445;-61
2023/06/28 03:06:03;;;;;;;8.80;7.38;;;25.10;99.90;;;;;;5092344;28;20160;-60
2023/06/28 03:08:29;;;;;;;8.32;6.85;;;25.00;99.90;;;;;;5088292;28;20127;-61
2023/06/28 03:10:55;;;;;;;7.53;6.45;;;25.00;99.90;;;;;;5091874;28;20124;-61
2023/06/28 03:13:20;;;;;;;7.97;7.28;;;25.10;99.90;;;;;;5087225;28;20032;-61
2023/06/28 03:15:47;;;;;;;8.18;7.38;;;25.00;99.90;;;;;;5079262;28;20028;-60
2023/06/28 03:18:13;;;;;;;8.13;7.32;;;24.90;99.90;;;;;;5091574;28;20040;-61
2023/06/28 03:20:39;;;;;;;9.10;8.05;;;24.90;99.90;;;;;;5090813;28;20511;-60
2023/06/28 03:23:05;;;;;;;7.82;7.13;;;24.80;99.90;;;;;;5092393;28;20036;-61
2023/06/28 03:25:30;;;;;;;7.55;6.93;;;24.70;99.90;;;;;;5090971;28;20035;-61
2023/06/28 03:27:56;;;;;;;9.18;7.45;;;24.80;99.90;;;;;;5092575;28;20032;-61
2023/06/28 03:30:22;;;;;;;7.78;6.72;;;24.60;99.90;;;;;;5089775;28;20365;-61
2023/06/28 03:32:48;;;;;;;8.52;7.28;;;24.60;99.90;;;;;;5092910;28;20046;-61
2023/06/28 03:35:14;;;;;;;7.97;7.15;;;24.60;99.90;;;;;;5091783;28;20461;-61
2023/06/28 03:37:47;;;;;;;8.40;7.57;;;24.70;99.90;;;;;;5089879;28;20048;-61
2023/06/28 03:40:15;;;;;;;7.50;6.80;;;24.50;99.90;;;;;;5092627;28;20115;-61
2023/06/28 03:42:40;;;;;;;8.52;7.18;;;24.60;99.90;;;;;;5091906;28;20136;-61
2023/06/28 03:45:07;;;;;;;7.15;6.45;;;24.60;99.90;;;;;;5092541;28;20044;-60
2023/06/28 03:47:32;;;;;;;7.20;6.50;;;24.50;99.90;;;;;;5091349;28;20081;-61
2023/06/28 03:49:58;;;;;;;7.82;6.30;;;24.50;99.90;;;;;;5091583;28;20561;-61
2023/06/28 03:52:24;;;;;;;6.50;5.80;;;24.50;99.90;;;;;;5071107;28;20031;-61
2023/06/28 03:54:49;;;;;;;9.30;6.68;;;24.40;99.90;;;;;;5091085;28;20079;-61
2023/06/28 03:57:15;;;;;;;6.85;5.82;;;24.30;99.90;;;;;;5089699;28;20055;-61
2023/06/28 03:59:40;;;;;;;6.55;5.95;;;24.20;99.90;;;;;;5090844;28;20504;-61
2023/06/28 04:02:06;;;;;;;7.10;6.40;;;24.20;99.90;;;;;;5092499;28;20028;-61
2023/06/28 04:04:33;;;;;;;8.10;6.18;;;24.20;99.90;;;;;;5090812;28;20027;-61
2023/06/28 04:07:01;;;;;;;6.78;6.10;;;24.40;99.90;;;;;;5088901;28;20409;-61
2023/06/28 04:09:27;;;;;;;8.40;6.75;;;24.40;99.90;;;;;;5090787;28;20093;-61
2023/06/28 04:11:52;;;;;;;6.50;5.90;;;24.40;99.90;;;;;;5090722;28;20032;-61
2023/06/28 04:14:18;;;;;;;6.88;6.18;;;24.50;99.90;;;;;;5092082;28;20028;-61
2023/06/28 04:16:44;;;;;;;9.07;6.82;;;24.50;99.90;;;;;;5090814;28;20504;-61
2023/06/28 04:19:10;;;;;;;8.85;6.22;;;24.60;99.90;;;;;;5092218;28;20046;-62
2023/06/28 04:21:35;;;;;;;10.02;6.50;;;24.70;99.90;;;;;;5088069;28;20389;-59
2023/06/28 04:24:01;;;;;;;7.05;6.35;;;24.60;99.90;;;;;;5092439;28;20426;-61
2023/06/28 04:26:27;;;;;;;8.38;6.30;;;24.60;99.90;;;;;;5088554;28;20915;-61
2023/06/28 04:28:52;;;;;;;6.28;5.68;;;24.70;99.90;;;;;;5089487;28;20051;-61
2023/06/28 04:31:18;;;;;;;6.40;5.72;;;24.60;99.90;;;;;;5090645;28;20144;-60
2023/06/28 04:33:43;;;;;;;6.00;5.40;;;24.70;99.90;;;;;;5092129;28;20028;-61
2023/06/28 04:36:09;;;;;;;11.75;6.80;;;24.70;99.90;;;;;;5090555;28;20020;-61
2023/06/28 04:38:35;;;;;;;8.77;6.45;;;24.70;99.90;;;;;;5091388;28;20052;-60
2023/06/28 04:41:01;;;;;;;7.22;6.53;;;24.80;99.90;;;;;;5089703;28;20507;-60
2023/06/28 04:43:27;;;;;;;8.45;6.38;;;24.80;99.90;;;;;;5091471;28;20081;-60
2023/06/28 04:45:55;;;;;;;6.70;6.03;;;24.80;99.90;;;;;;5091848;28;20405;-60
2023/06/28 04:48:21;;;;;;;7.35;6.65;;;24.70;99.90;;;;;;5090448;28;20040;-60
2023/06/28 04:50:47;;;;;;;8.23;6.28;;;24.70;99.90;;;;;;5089796;28;20020;-60
2023/06/28 04:53:13;;;;;;;6.15;5.60;;;24.70;99.90;;;;;;5092034;28;20050;-59
2023/06/28 04:55:43;;;;;;;7.32;6.60;;;24.70;99.90;;;;;;5086990;28;20077;-60
2023/06/28 04:58:09;;;;;;;6.22;5.65;;;24.70;99.90;;;;;;5092367;28;20443;-60
2023/06/28 05:00:35;;;;;;;8.77;5.53;;;24.80;99.90;;;;;;5081701;28;20016;-60
2023/06/28 05:03:00;;;;;;;6.28;5.78;;;24.80;99.90;;;;;;5084909;28;20054;-60
2023/06/28 05:05:26;;;;;;;6.05;5.45;;;24.80;99.90;;;;;;5084444;28;20113;-60
2023/06/28 05:07:53;;;;;;;5.75;5.10;;;24.80;99.90;;;;;;5087103;28;20441;-60
2023/06/28 05:10:20;;;;;;;5.20;4.70;;;24.80;99.90;;;;;;5082569;28;20024;-60
2023/06/28 05:12:46;;;;;;;9.27;6.00;;;24.90;99.90;;;;;;5092577;28;20362;-60
2023/06/28 05:15:12;;;;;;;5.97;5.15;;;24.90;99.90;;;;;;5077951;28;20023;-60
2023/06/28 05:17:38;;;;;;;5.72;4.45;;;24.80;99.90;;;;;;5088696;28;20044;-60
2023/06/28 05:20:04;;;;;;;7.80;5.25;;;24.90;99.90;;;;;;5090201;28;20595;-60
2023/06/28 05:22:30;;;;;;;6.40;4.88;;;25.00;99.90;;;;;;5090533;28;20040;-60
2023/06/28 05:24:55;;;;;;;6.93;5.15;;;25.10;99.90;;;;;;5092177;28;20138;-61
2023/06/28 05:27:21;;;;;;;7.22;4.78;;;25.20;99.90;;;;;;5092828;28;20039;-61
2023/06/28 05:29:47;;;;;;;5.68;4.80;;;25.20;99.90;;;;;;5095875;28;20032;-61
2023/06/28 05:32:15;;;;;;;4.85;4.45;;;25.20;99.90;;;;;;5091605;28;20020;-61
2023/06/28 05:34:41;;;;;;;7.10;4.50;;;25.00;99.90;;;;;;5095963;28;20388;-61
2023/06/28 05:37:07;;;;;;;4.32;4.00;;;25.20;99.90;;;;;;5094537;28;20028;-61
2023/06/28 05:39:32;;;;;;;6.78;4.47;;;25.20;99.90;;;;;;5095671;28;20040;-61
2023/06/28 05:41:58;;;;;;;5.13;4.63;;;25.10;99.90;;;;;;5087758;28;20020;-61
2023/06/28 05:44:24;;;;;;;5.25;4.75;;;25.10;99.90;;;;;;5092372;28;20438;-61
2023/06/28 05:46:50;;;;;;;6.60;4.07;;;25.30;99.90;;;;;;5091324;28;20378;-61
2023/06/28 05:49:15;;;;;;;4.68;3.95;;;25.20;99.90;;;;;;5094623;28;20374;-61
2023/06/28 05:51:41;;;;;;;5.75;4.90;;;25.20;99.90;;;;;;5091635;28;20074;-61
2023/06/28 05:54:07;;;;;;;8.50;4.90;;;25.30;99.90;;;;;;5095383;28;20052;-61
2023/06/28 05:56:32;;;;;;;6.22;4.20;;;25.40;99.90;;;;;;5094500;28;20020;-74
2023/06/28 05:58:58;;;;;;;5.35;4.78;;;25.40;99.90;;;;;;5089577;28;20148;-82
2023/06/28 06:01:24;;;;;;;5.60;5.00;;;25.40;99.90;;;;;;5082184;28;20106;-79
2023/06/28 06:03:50;;;;;;;5.00;4.25;;;25.40;99.90;;;;;;5092601;28;20025;-78
2023/06/28 06:06:17;;;;;;;5.13;4.60;;;25.40;99.90;;;;;;5079988;28;20023;-78
2023/06/28 06:08:43;;;;;;;6.53;3.88;;;25.50;99.90;;;;;;5095346;28;20508;-78
2023/06/28 06:11:09;;;;;;;7.95;4.55;;;25.60;99.90;;;;;;5094149;28;20028;-78
2023/06/28 06:13:35;;;;;;;5.05;4.45;;;25.60;99.90;;;;;;5093271;28;20028;-63
2023/06/28 06:16:00;;;;;;;5.30;4.25;;;25.40;99.90;;;;;;5091851;28;20139;-63
2023/06/28 06:18:26;;;;;;;6.82;4.93;;;25.30;99.90;;;;;;5094830;28;20122;-63
2023/06/28 06:20:52;;;;;;;5.70;5.10;;;25.50;99.90;;;;;;5093869;28;20086;-63
2023/06/28 06:23:18;;;;;;;6.03;4.20;;;25.40;99.90;;;;;;5080546;28;20478;-63
2023/06/28 06:25:44;;;;;;;5.28;4.63;;;25.50;99.90;;;;;;5090924;28;20020;-64
2023/06/28 06:28:10;;;;;;;6.13;4.28;;;25.60;99.90;;;;;;5079563;28;20558;-69
2023/06/28 06:30:36;;;;;;;4.82;4.35;;;25.40;99.90;;;;;;5083481;28;20020;-69
2023/06/28 06:33:02;;;;;;;7.07;4.30;;;25.60;99.90;;;;;;5088178;28;20448;-71
2023/06/28 06:35:27;;;;;;;6.55;4.72;;;25.60;99.90;;;;;;5084234;28;20105;-71
2023/06/28 06:37:53;;;;;;;6.03;4.70;;;25.70;99.90;;;;;;5091404;28;20035;-71
2023/06/28 06:40:19;;;;;;;5.50;4.65;;;25.60;99.90;;;;;;5094457;28;20020;-71
2023/06/28 06:42:46;;;;;;;4.97;4.30;;;25.60;99.90;;;;;;5090516;28;20028;-71
2023/06/28 06:45:16;;;;;;;4.25;3.72;;;25.80;99.90;;;;;;5094380;28;20377;-71
2023/06/28 06:47:44;;;;;;;7.97;3.80;;;25.60;99.90;;;;;;5091877;28;20358;-69
2023/06/28 06:50:09;;;;;;;4.80;4.38;;;25.60;99.90;;;;;;5094142;28;20099;-70
2023/06/28 06:52:37;;;;;;;6.85;4.43;;;25.60;99.90;;;;;;5076337;28;20150;-68
2023/06/28 06:55:04;;;;;;;5.68;4.32;;;25.80;99.90;;;;;;5081546;28;20020;-70
2023/06/28 06:57:29;;;;;;;5.20;4.70;;;25.90;99.90;;;;;;5091897;28;20044;-70
2023/06/28 06:59:55;;;;;;;5.15;4.35;;;25.90;99.90;;;;;;5090091;28;20119;-70
2023/06/28 07:02:21;;;;;;;5.20;4.70;;;26.10;99.90;;;;;;5092435;28;20470;-73
2023/06/28 07:04:50;;;;;;;7.55;4.45;;;26.20;99.90;;;;;;5086089;28;20035;-73
2023/06/28 07:07:16;;;;;;;6.20;4.65;;;25.90;99.90;;;;;;5092436;28;20024;-73
2023/06/28 07:09:42;;;;;;;5.88;5.07;;;26.00;99.90;;;;;;5092646;28;20024;-73
2023/06/28 07:12:08;;;;;;;5.22;4.50;;;26.20;99.90;;;;;;5094187;28;20461;-73
2023/06/28 07:14:34;;;;;;;6.82;4.70;;;26.30;99.90;;;;;;5092767;28;20066;-73
2023/06/28 07:16:59;;;;;;;5.35;4.22;;;26.50;99.90;;;;;;5091419;28;20451;-73
2023/06/28 07:19:25;;;;;;;4.80;4.18;;;26.50;99.90;;;;;;5091932;28;20039;-73
2023/06/28 07:21:50;;;;;;;6.60;4.97;;;26.80;99.90;;;;;;5093687;28;20028;-74
2023/06/28 07:24:16;;;;;;;7.43;4.25;;;26.80;99.90;;;;;;5092925;28;20077;-73
2023/06/28 07:26:42;;;;;;;4.93;4.32;;;26.80;99.90;;;;;;5093700;28;20062;-74
2023/06/28 07:29:07;;;;;;;5.15;4.00;;;26.90;99.90;;;;;;5092483;28;20063;-78
2023/06/28 07:31:33;;;;;;;6.00;4.65;;;26.90;99.90;;;;;;5090514;28;20081;-76
2023/06/28 07:34:04;;;;;;;5.50;4.82;;;26.80;99.90;;;;;;5092341;28;20031;-68
2023/06/28 07:36:31;;;;;;;4.75;4.25;;;26.80;99.90;;;;;;5078307;28;20039;-68
2023/06/28 07:38:57;;;;;;;12.88;5.28;;;26.90;99.90;;;;;;5091331;28;20039;-65
2023/06/28 07:41:22;;;;;;;7.38;4.32;;;26.90;99.90;;;;;;5091480;28;20028;-64
2023/06/28 07:43:48;;;;;;;5.85;5.03;;;27.00;99.90;;;;;;5087494;28;20024;-65
2023/06/28 07:46:13;;;;;;;4.85;3.75;;;26.90;99.90;;;;;;5086118;28;20384;-66
2023/06/28 07:48:39;;;;;;;6.03;5.43;;;26.80;99.90;;;;;;5078481;28;20032;-71
2023/06/28 07:51:05;;;;;;;14.70;7.35;;;26.80;99.90;;;;;;5086295;28;20035;-68
2023/06/28 07:53:31;;;;;;;11.38;7.07;;;26.70;99.90;;;;;;5093453;28;20020;-67
2023/06/28 07:55:57;;;;;;;7.88;5.90;;;26.80;99.90;;;;;;5086290;28;20020;-66
2023/06/28 07:58:22;;;;;;;9.27;5.50;;;26.80;99.90;;;;;;5093353;28;20131;-65
2023/06/28 08:00:48;;;;;;;8.10;4.93;;;26.80;99.90;;;;;;5092226;28;20502;-66
2023/06/28 08:03:14;;;;;;;8.40;5.72;;;26.80;99.90;;;;;;5093626;28;20085;-67
2023/06/28 08:05:40;;;;;;;7.93;5.53;;;26.80;99.90;;;;;;5091845;28;20023;-65
2023/06/28 08:08:06;;;;;;;8.52;6.15;;;26.90;99.90;;;;;;5091522;28;20124;-68
2023/06/28 08:10:32;;;;;;;8.50;6.10;;;27.00;99.90;;;;;;5092242;28;20028;-67
2023/06/28 08:12:57;;;;;;;8.48;5.68;;;26.90;99.90;;;;;;5093224;28;20359;-67
2023/06/28 08:15:23;;;;;;;9.13;6.38;;;27.00;99.90;;;;;;5092014;28;20023;-67
2023/06/28 08:17:49;;;;;;;7.97;5.43;;;26.90;99.90;;;;;;5093129;28;20048;-67
2023/06/28 08:20:15;;;;;;;7.85;6.15;;;27.00;99.90;;;;;;5092999;28;20024;-66
2023/06/28 08:22:40;;;;;;;7.32;6.63;;;27.00;99.90;;;;;;5087464;28;20173;-68
2023/06/28 08:25:06;;;;;;;6.88;5.68;;;27.00;99.90;;;;;;5093124;28;20445;-66
2023/06/28 08:27:32;;;;;;;8.05;6.63;;;27.00;99.90;;;;;;5091587;28;20515;-63
2023/06/28 08:29:58;;;;;;;5.97;5.32;;;27.10;99.90;;;;;;5092962;28;20070;-66
2023/06/28 08:32:24;;;;;;;6.60;5.43;;;27.20;99.90;;;;;;5090669;28;20036;-69
2023/06/28 08:34:49;;;;;;;5.80;4.88;;;27.20;99.90;;;;;;5092772;28;20476;-67
2023/06/28 08:37:16;;;;;;;9.55;5.68;;;27.20;99.90;;;;;;5090243;28;20032;-64
2023/06/28 08:39:42;;;;;;;6.05;4.93;;;27.20;99.90;;;;;;5092494;28;20054;-68
2023/06/28 08:42:08;;;;;;;14.00;5.70;;;27.50;99.90;;;;;;5090039;28;20028;-68
2023/06/28 08:44:34;;;;;;;6.50;5.85;;;27.30;99.90;;;;;;5092129;28;20020;-64
2023/06/28 08:47:01;;;;;;;8.45;5.40;;;27.40;99.90;;;;;;5088761;28;20431;-66
2023/06/28 08:49:28;;;;;;;9.77;5.30;;;27.40;99.90;;;;;;5092829;28;20093;-68
2023/06/28 08:51:55;;;;;;;11.32;5.97;;;27.30;99.90;;;;;;5084595;28;20025;-70
2023/06/28 08:54:23;;;;;;;8.10;4.93;;;27.60;99.90;;;;;;5093691;28;20020;-73
2023/06/28 08:56:51;;;;;;;7.97;5.50;;;27.60;99.90;;;;;;5086646;28;20028;-70
2023/06/28 08:59:17;;;;;;;9.25;5.15;;;27.70;99.90;;;;;;5078368;28;20063;-64
2023/06/28 09:01:44;;;;;;;6.68;5.18;;;27.90;99.90;;;;;;5095530;28;20103;-63
2023/06/28 09:04:10;;;;;;;6.95;6.28;;;27.90;99.90;;;;;;5097025;28;20023;-68
2023/06/28 09:06:36;;;;;;;9.73;5.85;;;28.30;99.90;;;;;;5096400;28;20358;-67
2023/06/28 09:09:03;;;;;;;11.48;7.38;;;28.60;99.90;;;;;;5080627;28;20256;-70
2023/06/28 09:11:29;;;;;;;7.60;6.80;;;28.30;99.90;;;;;;5090692;28;20016;-72
2023/06/28 09:13:55;;;;;;;8.10;6.55;;;28.30;99.90;;;;;;5097267;28;20085;-69
2023/06/28 09:16:22;;;;;;;15.63;7.07;;;28.40;99.90;;;;;;5094277;28;20046;-75
2023/06/28 09:18:48;;;;;;;11.48;6.22;;;28.10;99.90;;;;;;5096439;28;20032;-65
2023/06/28 09:21:25;;;;;;;13.15;7.65;;;28.50;99.90;;;;;;5090525;28;20381;-71
2023/06/28 09:23:51;;;;;;;9.90;7.60;;;28.70;99.90;;;;;;5096149;28;20024;-66
2023/06/28 09:26:16;;;;;;;14.32;7.55;;;28.70;99.90;;;;;;5092503;28;20073;-68
2023/06/28 09:28:42;;;;;;;8.93;5.78;;;28.60;99.90;;;;;;5093492;28;20123;-71
2023/06/28 09:31:08;;;;;;;15.60;7.20;;;28.90;99.90;;;;;;5095978;28;20445;-71
2023/06/28 09:33:34;;;;;;;7.30;6.22;;;28.70;99.90;;;;;;5094557;28;20106;-67
2023/06/28 09:36:02;;;;;;;6.60;6.00;;;28.80;99.90;;;;;;5096006;28;20116;-67
2023/06/28 09:38:28;;;;;;;13.88;7.03;;;28.50;99.90;;;;;;5092588;28;20416;-64
2023/06/28 09:41:00;;;;;;;9.32;6.78;;;28.40;99.90;;;;;;5087132;28;20107;-60
2023/06/28 09:43:32;;;;;;;7.68;6.22;;;28.30;99.90;;;;;;5093507;28;20366;-66
2023/06/28 09:46:16;;;;;;;10.98;6.35;;;28.30;99.90;;;;;;5093803;28;20026;-62
2023/06/28 09:48:48;;;;;;;8.80;6.40;;;28.30;99.90;;;;;;5092740;28;20451;-62
2023/06/28 09:51:18;;;;;;;7.35;6.53;;;28.50;99.90;;;;;;5093629;28;20081;-64
2023/06/28 09:53:49;;;;;;;8.25;6.88;;;28.40;99.90;;;;;;5096705;28;20025;-72
2023/06/28 09:56:15;;;;;;;9.35;7.10;;;28.60;99.90;;;;;;5096185;28;20424;-77
2023/06/28 09:58:42;;;;;;;11.30;7.50;;;28.60;99.90;;;;;;5094304;28;20036;-73
2023/06/28 10:01:08;;;;;;;8.75;7.50;;;29.20;99.90;;;;;;5094632;28;20028;-75
2023/06/28 10:03:34;;;;;;;7.60;6.60;;;29.10;99.90;;;;;;5092198;28;20136;-78
2023/06/28 10:06:01;;;;;;;9.10;6.20;;;29.00;99.90;;;;;;5077705;28;20082;-66
2023/06/28 10:08:27;;;;;;;8.35;7.45;;;29.00;99.90;;;;;;5089343;28;20039;-67
2023/06/28 10:10:57;;;;;;;9.82;8.25;;;29.20;99.90;;;;;;5095042;28;20016;-67
2023/06/28 10:13:26;;;;;;;8.20;7.32;;;29.20;99.90;;;;;;5092189;28;20362;-67
2023/06/28 10:16:09;;;;;;;7.82;7.03;;;29.20;99.90;;;;;;5094901;28;20020;-66
2023/06/28 10:18:35;;;;;;;15.20;9.40;;;29.00;99.90;;;;;;5086395;28;20768;-66
2023/06/28 10:21:05;;;;;;;10.27;8.55;;;28.90;99.90;;;;;;5093340;28;20028;-67
2023/06/28 10:23:35;;;;;;;8.93;8.00;;;29.20;99.90;;;;;;5088108;28;20042;-66
2023/06/28 10:26:02;;;;;;;7.95;7.20;;;29.90;99.90;;;;;;5087205;28;20024;-66
2023/06/28 10:28:31;;;;;;;8.57;7.85;;;29.60;99.90;;;;;;5093996;28;20447;-68
2023/06/28 10:30:58;;;;;;;10.93;9.93;;;29.50;99.90;;;;;;5094822;28;20043;-67
2023/06/28 10:33:25;;;;;;;9.27;8.38;;;29.60;99.90;;;;;;5093745;28;20067;-66
2023/06/28 10:35:52;;;;;;;9.13;8.32;;;29.60;99.90;;;;;;5095507;28;20036;-68
2023/06/28 10:38:18;;;;;;;13.82;8.48;;;30.00;99.90;;;;;;5092201;28;20036;-66
2023/06/28 10:40:47;;;;;;;10.93;8.02;;;29.90;99.90;;;;;;5094572;28;20020;-66
2023/06/28 10:43:23;;;;;;;8.88;7.47;;;30.10;99.90;;;;;;5092003;28;20024;-67
2023/06/28 10:45:49;;;;;;;10.77;7.80;;;30.80;99.90;;;;;;5094018;28;20550;-68
2023/06/28 10:48:19;;;;;;;9.82;7.47;;;30.40;99.90;;;;;;5086382;28;20016;-69
2023/06/28 10:50:47;;;;;;;10.35;7.30;;;30.60;99.90;;;;;;5094162;28;20028;-68
2023/06/28 10:53:25;;;;;;;8.57;7.45;;;30.30;99.90;;;;;;5092697;28;20497;-65
2023/06/28 10:56:12;;;;;;;8.95;8.02;;;30.40;99.90;;;;;;5079026;28;20032;-70
2023/06/28 10:58:40;;;;;;;9.10;8.20;;;30.10;99.90;;;;;;5094375;28;20472;-73
2023/06/28 11:01:07;;;;;;;11.77;8.68;;;30.00;99.90;;;;;;5093604;28;20020;-75
2023/06/28 11:03:41;;;;;;;10.40;8.27;;;30.00;99.90;;;;;;5092966;28;20040;-71
2023/06/28 11:06:08;;;;;;;8.77;7.78;;;30.30;99.90;;;;;;5092290;28;20129;-71
2023/06/28 11:08:42;;;;;;;9.18;8.25;;;30.20;99.90;;;;;;5094373;28;20442;-71
2023/06/28 11:11:10;;;;;;;8.25;7.53;;;30.50;99.90;;;;;;5084336;28;20012;-63
2023/06/28 11:13:39;;;;;;;8.52;7.65;;;30.40;99.90;;;;;;5093357;28;20081;-65
2023/06/28 11:16:16;;;;;;;7.25;6.65;;;30.80;99.90;;;;;;5091388;28;20465;-64
2023/06/28 11:18:42;;;;;;;7.68;6.93;;;30.90;99.90;;;;;;5092139;28;20098;-74
2023/06/28 11:21:15;;;;;;;8.23;6.38;;;31.30;99.90;;;;;;5088374;28;20044;-70
2023/06/28 11:23:42;;;;;;;8.00;7.00;;;33.40;99.90;;;;;;5085268;28;20031;-71
2023/06/28 11:26:18;;;;;;;8.18;6.93;;;34.60;99.90;;;;;;5088494;28;20020;-68
2023/06/28 11:29:17;;;;;;;8.10;6.45;;;36.00;99.90;;;;;;5086229;28;20056;-74
2023/06/28 11:31:52;;;;;;;9.00;7.35;;;34.60;99.90;;;;;;5081734;28;20504;-69
2023/06/28 11:34:19;;;;;;;8.07;6.43;;;35.50;99.90;;;;;;5091237;28;20031;-68
2023/06/28 11:36:47;;;;;;;7.55;6.82;;;35.00;99.90;;;;;;5090695;28;20028;-69
2023/06/28 11:39:21;;;;;;;7.53;6.82;;;35.40;99.90;;;;;;5092021;28;20036;-68
2023/06/28 11:41:47;;;;;;;7.65;6.95;;;37.00;99.90;;;;;;5091333;28;20107;-68
2023/06/28 11:44:13;;;;;;;9.02;7.00;;;38.10;99.90;;;;;;5089953;28;20445;-69
2023/06/28 11:46:41;;;;;;;7.35;6.75;;;35.80;99.90;;;;;;5093249;28;20215;-68
2023/06/28 11:49:07;;;;;;;7.28;6.68;;;36.10;99.90;;;;;;5092530;28;20028;-68
2023/06/28 11:51:35;;;;;;;13.43;10.27;;;36.90;99.90;;;;;;5090879;28;20032;-68
2023/06/28 11:54:04;;;;;;;9.38;7.88;;;35.80;99.90;;;;;;5090210;28;20557;-68
2023/06/28 11:56:46;;;;;;;11.10;9.40;;;38.20;99.90;;;;;;5086811;28;20457;-68
2023/06/28 11:59:22;;;;;;;11.15;8.07;;;38.60;99.90;;;;;;5079792;28;20074;-68
2023/06/28 12:02:03;;;;;;;11.63;7.90;;;38.70;99.90;;;;;;5092069;28;20047;-68
2023/06/28 12:04:29;;;;;;;10.48;7.65;;;35.50;99.90;;;;;;5091586;28;20036;-68
2023/06/28 12:06:55;;;;;;;10.07;8.05;;;33.80;99.90;;;;;;5089819;28;20028;-68
2023/06/28 12:09:27;;;;;;;11.70;7.60;;;32.90;99.90;;;;;;5089971;28;20115;-68
2023/06/28 12:12:06;;;;;;;11.95;7.25;;;32.60;99.90;;;;;;5092902;28;20374;-69
2023/06/28 12:14:41;;;;;;;7.13;6.50;;;33.00;99.90;;;;;;5092882;28;20056;-69
2023/06/28 12:17:07;;;;;;;8.05;6.72;;;33.80;99.90;;;;;;5090735;28;20084;-69
2023/06/28 12:19:33;;;;;;;7.75;5.90;;;34.00;99.90;;;;;;5092738;28;20478;-70
2023/06/28 12:22:08;;;;;;;9.57;6.53;;;34.80;99.90;;;;;;5090419;28;20028;-70
2023/06/28 12:24:36;;;;;;;7.00;6.28;;;35.30;99.90;;;;;;5090670;28;20036;-70
2023/06/28 12:27:03;;;;;;;8.85;6.25;;;35.60;99.90;;;;;;5085968;28;20024;-69
2023/06/28 12:29:31;;;;;;;6.95;6.07;;;36.20;99.90;;;;;;5088762;28;20032;-70
2023/06/28 12:32:05;;;;;;;6.85;6.10;;;34.50;99.90;;;;;;5092719;28;20103;-70
2023/06/28 12:34:34;;;;;;;6.65;5.78;;;34.30;99.90;;;;;;5094386;28;20488;-70
2023/06/28 12:37:09;;;;;;;6.05;5.65;;;34.80;99.90;;;;;;5087052;28;20024;-70
2023/06/28 12:39:37;;;;;;;6.47;5.88;;;34.90;99.90;;;;;;5096922;28;20051;-70
2023/06/28 12:42:04;;;;;;;7.05;6.40;;;35.20;99.90;;;;;;5095966;28;20016;-71
2023/06/28 12:44:32;;;;;;;6.65;6.05;;;35.20;99.90;;;;;;5094557;28;20031;-71